»·PEaware :: SWA210 KLAS-KSBP

SWA210 :: KLAS-KSBP

FLIGHT INFORMATION

Flight Status: Arrived
Operator:
Southwest Airlines
More flights by this operator :: More flights under this callsign
Pilot: Anonymous 16446 (16446)
Aircraft: BOEING 737-200
(B732)
More flights by this aircraft type
Origin: KLAS McCarran Intl
United States
Destination: KSBP San Luis Co Regl
United States
More flights between these airports :: More routes between these airports
Route: +MCCRN5 HEC J6 PMD RZS GVO MQO
File this flight plan on PilotEdge
Remarks:
Altitude:
(Current/Filed)
31,000ft
Speed:
(Current/Filed)
450kts
Departed: 01-Dec-17 10:10 PM
Arrived: 01-Dec-17 11:15 PM
Distance/Time
Traveled:
272nm/1:05
Distance/Time
To Go:
Arrived

Flight Plot

Page will automatically refresh every two minutes.

Flight plan parsing failed; only flown route is shown


Map Options




Map Legend


Flown Route
Filed Route
Departure Airport
Arrival Airport
Navaid (VOR, NDB)
Fix

Horizontal Profiles

Position Reports

Time Latitude Longitude Heading Altitude Ground
Speed
01-Dec-17 21:46 36.079579 -115.146672 29 2123ft 0kts
01-Dec-17 21:47 36.079579 -115.146672 29 2123ft 0kts
01-Dec-17 21:48 36.079579 -115.146672 29 2123ft 0kts
01-Dec-17 21:49 36.079579 -115.146672 29 2123ft 0kts
01-Dec-17 21:50 36.079579 -115.146672 29 2123ft 0kts
01-Dec-17 21:51 36.079579 -115.146672 29 2123ft 0kts
01-Dec-17 21:52 36.079579 -115.146672 29 2123ft 0kts
01-Dec-17 21:53 36.079579 -115.146672 29 2123ft 0kts
01-Dec-17 21:54 36.079579 -115.146672 29 2123ft 0kts
01-Dec-17 21:55 36.079579 -115.146672 29 2123ft 0kts
01-Dec-17 21:56 36.079579 -115.146672 29 2123ft 0kts
01-Dec-17 21:57 36.079579 -115.146672 29 2123ft 0kts
01-Dec-17 21:58 36.079579 -115.146672 29 2123ft 0kts
01-Dec-17 21:59 36.079579 -115.146672 29 2123ft 0kts
01-Dec-17 22:00 36.079579 -115.146672 29 2123ft 0kts
01-Dec-17 22:01 36.079246 -115.146875 121 2123ft 0kts
01-Dec-17 22:02 36.079246 -115.146875 121 2123ft 0kts
01-Dec-17 22:03 36.079246 -115.146875 121 2123ft 0kts
01-Dec-17 22:04 36.079246 -115.146875 121 2123ft 0kts
01-Dec-17 22:05 36.079218 -115.146820 121 2123ft 6kts
01-Dec-17 22:06 36.078267 -115.139865 90 2123ft 33kts
01-Dec-17 22:07 36.078306 -115.125924 89 2123ft 40kts
01-Dec-17 22:08 36.078238 -115.122691 103 2123ft 0kts
01-Dec-17 22:09 36.078117 -115.122380 125 2123ft 10kts
01-Dec-17 22:10 36.077434 -115.121399 154 2123ft 0kts
01-Dec-17 22:11 36.077434 -115.121399 154 2123ft 0kts
01-Dec-17 22:12 36.077434 -115.121399 154 2123ft 0kts
01-Dec-17 22:13 36.076411 -115.121993 271 2123ft 0kts
01-Dec-17 22:14 36.076411 -115.121993 271 2123ft 0kts
01-Dec-17 22:15 36.076012 -115.159093 266 2895ft 179kts
01-Dec-17 22:16 36.059722 -115.220367 200 5603ft 241kts
01-Dec-17 22:17 35.987527 -115.250176 196 8954ft 281kts
01-Dec-17 22:18 35.918016 -115.283212 200 12315ft 271kts
01-Dec-17 22:19 35.847255 -115.317888 202 13871ft 278kts
01-Dec-17 22:20 35.777103 -115.360133 215 14517ft 308kts
01-Dec-17 22:21 35.711270 -115.420822 213 16779ft 274kts
01-Dec-17 22:22 35.647922 -115.480793 223 17544ft 293kts
01-Dec-17 22:23 35.588190 -115.551752 224 18107ft 318kts
01-Dec-17 22:24 35.522352 -115.629018 223 19013ft 330kts
01-Dec-17 22:25 35.461813 -115.699299 223 19930ft 335kts
01-Dec-17 22:26 35.394141 -115.778015 223 20901ft 340kts
01-Dec-17 22:27 35.325006 -115.858076 223 21815ft 345kts
01-Dec-17 22:28 35.257758 -115.935932 223 22641ft 349kts
01-Dec-17 22:29 35.187076 -116.017364 223 23877ft 343kts
01-Dec-17 22:30 35.117113 -116.097908 223 24635ft 349kts
01-Dec-17 22:31 35.045995 -116.179572 223 25406ft 353kts
01-Dec-17 22:32 34.974093 -116.261933 223 26122ft 357kts
01-Dec-17 22:33 34.901168 -116.345251 223 26797ft 361kts
01-Dec-17 22:34 34.828184 -116.427126 223 27422ft 365kts
01-Dec-17 22:35 34.768583 -116.523882 265 28178ft 371kts
01-Dec-17 22:36 34.772372 -116.645845 269 29627ft 363kts
01-Dec-17 22:37 34.766302 -116.766520 264 29983ft 364kts
01-Dec-17 22:38 34.756402 -116.886974 263 29989ft 352kts
01-Dec-17 22:39 34.745760 -117.003217 263 29992ft 343kts
01-Dec-17 22:40 34.734934 -117.117396 263 29992ft 337kts
01-Dec-17 22:41 34.724100 -117.229689 263 29992ft 331kts
01-Dec-17 22:42 34.713180 -117.339867 268 29983ft 325kts
01-Dec-17 22:43 34.705514 -117.447597 263 29992ft 319kts
01-Dec-17 22:44 34.693973 -117.556261 262 28797ft 350kts
01-Dec-17 22:45 34.680427 -117.670735 261 28257ft 340kts
01-Dec-17 22:46 34.666257 -117.783876 261 27311ft 337kts
01-Dec-17 22:47 34.652439 -117.895565 261 26450ft 332kts
01-Dec-17 22:48 34.638616 -118.005614 261 25620ft 328kts
01-Dec-17 22:49 34.624850 -118.114473 261 24810ft 323kts
01-Dec-17 22:50 34.611542 -118.219271 261 24045ft 319kts
01-Dec-17 22:51 34.598204 -118.323630 261 23989ft 307kts
01-Dec-17 22:52 34.588013 -118.425326 278 23991ft 305kts
01-Dec-17 22:53 34.597044 -118.527814 271 24000ft 307kts
01-Dec-17 22:54 34.595150 -118.632058 267 23998ft 311kts
01-Dec-17 22:55 34.587241 -118.734373 270 23996ft 313kts
01-Dec-17 22:56 34.584126 -118.832163 266 23999ft 316kts
01-Dec-17 22:57 34.577209 -118.941211 265 24009ft 335kts
01-Dec-17 22:58 34.568485 -119.058267 264 24017ft 364kts
01-Dec-17 22:59 34.558465 -119.185585 264 24013ft 397kts
01-Dec-17 23:00 34.547287 -119.324070 264 24011ft 428kts
01-Dec-17 23:01 34.535135 -119.472028 264 24009ft 454kts
01-Dec-17 23:02 34.522127 -119.627726 264 24005ft 472kts
01-Dec-17 23:03 34.523660 -119.786144 271 24301ft 476kts
01-Dec-17 23:04 34.527638 -119.947191 271 24150ft 478kts
01-Dec-17 23:05 34.531753 -120.105141 272 23981ft 454kts
01-Dec-17 23:06 34.593546 -120.214463 331 24472ft 355kts
01-Dec-17 23:07 34.675661 -120.272483 327 21547ft 351kts
01-Dec-17 23:08 34.754506 -120.335682 326 19113ft 333kts
01-Dec-17 23:09 34.829287 -120.398076 325 16634ft 321kts
01-Dec-17 23:10 34.901137 -120.458759 325 14250ft 310kts
01-Dec-17 23:11 34.969058 -120.516468 325 12601ft 274kts
01-Dec-17 23:12 35.030654 -120.568957 325 10469ft 270kts
01-Dec-17 23:13 35.090949 -120.620454 325 8400ft 261kts
01-Dec-17 23:14 35.142427 -120.664650 324 6621ft 255kts
01-Dec-17 23:15 35.199323 -120.714035 324 4643ft 247kts
01-Dec-17 23:16 35.252573 -120.764667 307 2955ft 236kts
01-Dec-17 23:17 35.292019 -120.782172 86 1932ft 206kts
01-Dec-17 23:18 35.280025 -120.715031 123 1572ft 189kts
01-Dec-17 23:19 35.253602 -120.670022 123 649ft 139kts
01-Dec-17 23:20 35.235556 -120.637847 121 203ft 32kts
01-Dec-17 23:21 35.237350 -120.639079 307 207ft 18kts
01-Dec-17 23:22 35.242745 -120.650558 124 245ft 135kts
01-Dec-17 23:23 35.240124 -120.645980 124 188ft 130kts
01-Dec-17 23:24 35.237542 -120.639344 306 205ft 0kts
01-Dec-17 23:25 35.247241 -120.658558 124 398ft 137kts
01-Dec-17 23:26 35.235298 -120.636373 79 211ft 7kts
01-Dec-17 23:27 35.238553 -120.643224 123 193ft 119kts
01-Dec-17 23:28 35.238769 -120.643606 124 192ft 123kts
01-Dec-17 23:29 35.236679 -120.639862 124 205ft 57kts
01-Dec-17 23:30 35.238796 -120.641117 28 195ft 0kts
01-Dec-17 23:31 35.238796 -120.641116 34 195ft 0kts
01-Dec-17 23:32 35.238796 -120.641116 34 195ft 0kts
01-Dec-17 23:33 35.238769 -120.641138 30 195ft 0kts
01-Dec-17 23:34 35.239284 -120.642397 300 194ft 18kts

Navigation Log

Ident Type
Flight plan parsing failed, navigation log unavailable